Terminal Aerodrome Forecast
Issued by NWS Sioux Falls, SD

Home | Current Version | Previous Version | Text Only | Print | Product List | Glossary On
Versions: 1 2 3 4 5 6 7 8 9 10 11 12 13 14 15 16 17
653
FTUS43 KFSD 231951 AAA
TAFFSD
TAF AMD
KFSD 231951Z 2320/2418 35012G18KT P6SM SCT040
     FM240000 02005KT P6SM SKC
     FM240500 08004KT P6SM SKC
     FM241100 12004KT 4SM BR FEW150
     FM241400 14006KT P6SM FEW250=

USA.gov is the U.S. government's official web portal to all federal, state and local government web resources and services.